Time;durP1;ratioP1;P1;durP2;ratioP2;P2;SDS_P1;SDS_P2;PMS_P1;PMS_P2;Temp;Humidity;BMP_temperature;BMP_pressure;BME280_temperature;BME280_humidity;BME280_pressure;Samples;Min_cycle;Max_cycle;Signal;HPM_P1;HPM_P2
2023/04/26 00:04:07;;;;;;;7.75;3.50;;;;;;;19.73;47.68;96578.50;10554405;28;20055;-53
2023/04/26 00:09:27;;;;;;;6.75;3.38;;;;;;;19.71;47.60;96578.81;10558752;28;20047;-53
2023/04/26 00:14:46;;;;;;;7.03;3.53;;;;;;;19.69;47.67;96575.63;10545171;28;20064;-53
2023/04/26 00:20:09;;;;;;;8.93;3.20;;;;;;;19.69;47.55;96583.72;10558400;28;20052;-53
2023/04/26 00:25:28;;;;;;;8.32;3.60;;;;;;;19.68;47.44;96570.53;10554881;28;20059;-53
2023/04/26 00:30:48;;;;;;;6.13;2.90;;;;;;;19.67;47.46;96575.16;10557828;28;20044;-53
2023/04/26 00:36:07;;;;;;;5.88;3.17;;;;;;;19.67;47.48;96590.59;10557757;28;20036;-53
2023/04/26 00:41:27;;;;;;;7.00;3.30;;;;;;;19.65;47.41;96593.63;10542356;28;20067;-53
2023/04/26 00:46:46;;;;;;;7.15;3.22;;;;;;;19.64;47.31;96600.16;10557449;28;20040;-53
2023/04/26 00:52:06;;;;;;;7.97;3.00;;;;;;;19.62;47.30;96602.41;10557144;28;20048;-53
2023/04/26 00:57:25;;;;;;;5.90;2.80;;;;;;;19.61;47.27;96611.59;10543487;28;20055;-53
2023/04/26 01:02:47;;;;;;;5.63;2.85;;;;;;;19.61;47.25;96610.81;10541589;28;20040;-53
2023/04/26 01:08:06;;;;;;;8.35;3.60;;;;;;;19.59;47.32;96613.84;10556507;28;20408;-53
2023/04/26 01:13:26;;;;;;;6.63;2.75;;;;;;;19.59;47.16;96615.78;10555981;28;20047;-53
2023/04/26 01:18:52;;;;;;;6.60;3.05;;;;;;;19.56;47.15;96615.31;10540919;28;20050;-53
2023/04/26 01:24:12;;;;;;;5.18;2.50;;;;;;;19.56;47.25;96609.91;10555969;28;20484;-53
2023/04/26 01:29:32;;;;;;;6.15;2.90;;;;;;;19.54;47.18;96622.97;10555679;28;20044;-53
2023/04/26 01:34:52;;;;;;;6.70;2.80;;;;;;;19.53;47.19;96615.94;10540324;28;20047;-53
2023/04/26 01:40:12;;;;;;;4.35;2.50;;;;;;;19.51;47.07;96618.19;10555267;28;20044;-53
2023/04/26 01:45:31;;;;;;;7.07;2.97;;;;;;;19.51;47.20;96622.81;10555036;28;20036;-53
2023/04/26 01:51:14;;;;;;;5.13;2.65;;;;;;;19.50;47.10;96632.84;10540596;28;20056;-53
2023/04/26 01:56:33;;;;;;;5.40;2.60;;;;;;;19.50;47.08;96632.03;10554632;28;20040;-53
2023/04/26 02:01:54;;;;;;;6.15;2.50;;;;;;;19.48;47.01;96626.97;10539106;28;20051;-53
2023/04/26 02:07:13;;;;;;;5.72;2.45;;;;;;;19.46;47.08;96623.00;10554257;28;20040;-53
2023/04/26 02:12:38;;;;;;;4.00;2.17;;;;;;;19.45;46.94;96627.63;10554067;28;20036;-53
2023/04/26 02:17:58;;;;;;;4.65;2.28;;;;;;;19.44;47.06;96625.22;10553897;28;20044;-53
2023/04/26 02:23:17;;;;;;;5.15;2.30;;;;;;;19.43;47.04;96626.38;10553700;28;20044;-53
2023/04/26 02:28:36;;;;;;;3.30;2.00;;;;;;;19.42;47.07;96630.94;10525421;28;20412;-53
2023/04/26 02:33:56;;;;;;;4.68;2.22;;;;;;;19.41;47.08;96628.59;10553331;28;20036;-53
2023/04/26 02:39:15;;;;;;;4.63;2.33;;;;;;;19.41;46.93;96626.69;10553170;28;20044;-53
2023/04/26 02:44:36;;;;;;;4.45;2.40;;;;;;;19.39;47.04;96634.31;10537726;28;20044;-53
2023/04/26 02:49:56;;;;;;;3.88;2.03;;;;;;;19.37;47.05;96633.88;10537533;28;20093;-53
2023/04/26 02:55:16;;;;;;;3.88;2.10;;;;;;;19.37;47.01;96636.56;10537474;28;20067;-53
2023/04/26 03:00:35;;;;;;;3.58;2.20;;;;;;;19.33;46.94;96633.72;10537399;28;20501;-53
2023/04/26 03:05:55;;;;;;;3.92;2.20;;;;;;;19.34;46.99;96642.59;10537284;28;20109;-53
2023/04/26 03:11:15;;;;;;;3.97;1.98;;;;;;;19.33;47.00;96638.34;10552444;28;20047;-53
2023/04/26 03:16:44;;;;;;;4.30;2.05;;;;;;;19.31;47.00;96638.66;10552449;28;20040;-53
2023/04/26 03:22:04;;;;;;;4.43;2.15;;;;;;;19.31;46.91;96644.06;10552332;28;20040;-53
2023/04/26 03:27:25;;;;;;;2.95;1.88;;;;;;;19.30;46.94;96636.28;10528199;28;20104;-53
2023/04/26 03:32:45;;;;;;;4.05;2.08;;;;;;;19.29;46.91;96637.41;10536853;28;20051;-53
2023/04/26 03:38:05;;;;;;;4.07;2.05;;;;;;;19.28;46.97;96641.22;10555162;28;20439;-53
2023/04/26 03:43:25;;;;;;;4.53;2.20;;;;;;;19.27;47.04;96650.44;10544609;28;20377;-53
2023/04/26 03:48:44;;;;;;;2.97;1.70;;;;;;;19.26;46.91;96648.84;10544283;28;20040;-53
2023/04/26 03:54:05;;;;;;;4.40;1.88;;;;;;;19.25;46.97;96649.97;10544203;28;20055;-53
2023/04/26 03:59:24;;;;;;;3.90;1.88;;;;;;;19.23;46.81;96658.41;10543994;28;20561;-53
2023/04/26 04:04:44;;;;;;;3.45;1.90;;;;;;;19.23;47.03;96665.69;10559175;28;20040;-53
2023/04/26 04:10:05;;;;;;;3.05;1.70;;;;;;;19.22;46.91;96666.81;10558830;28;20480;-53
2023/04/26 04:15:25;;;;;;;4.90;2.08;;;;;;;19.20;46.96;96674.47;10543417;28;20044;-53
2023/04/26 04:20:47;;;;;;;3.72;1.80;;;;;;;19.20;46.96;96674.47;10529766;28;20048;-53
2023/04/26 04:26:07;;;;;;;2.10;1.50;;;;;;;19.19;46.91;96672.88;10529194;28;20059;-53
2023/04/26 04:31:27;;;;;;;2.95;1.63;;;;;;;19.20;46.95;96674.47;10542665;28;20097;-53
2023/04/26 04:36:47;;;;;;;2.08;1.20;;;;;;;19.19;46.84;96686.38;10542626;28;20500;-53
2023/04/26 04:42:07;;;;;;;3.08;1.70;;;;;;;19.20;46.93;96688.75;10557612;28;20051;-53
2023/04/26 04:47:27;;;;;;;2.65;1.60;;;;;;;19.20;46.82;96691.44;10542149;28;20050;-53
2023/04/26 04:52:46;;;;;;;1.95;1.40;;;;;;;19.21;46.83;96693.03;10541248;28;20040;-54
2023/04/26 04:58:06;;;;;;;2.55;1.60;;;;;;;19.22;46.89;96697.31;10556978;28;20097;-53
2023/04/26 05:03:27;;;;;;;2.97;1.67;;;;;;;19.25;46.78;96706.66;10541520;28;20040;-53
2023/04/26 05:08:46;;;;;;;2.10;1.40;;;;;;;19.26;46.85;96708.28;10556345;28;20044;-53
2023/04/26 05:14:06;;;;;;;2.10;1.30;;;;;;;19.28;46.84;96708.75;10540984;28;20044;-53
2023/04/26 05:19:26;;;;;;;1.67;1.35;;;;;;;19.30;46.82;96706.50;10540829;28;20527;-53
2023/04/26 05:24:46;;;;;;;2.88;1.65;;;;;;;19.32;46.61;96712.38;10526712;28;20413;-53
2023/04/26 05:30:07;;;;;;;2.08;1.35;;;;;;;19.34;46.66;96723.66;10540319;28;20040;-53
2023/04/26 05:35:39;;;;;;;2.17;1.45;;;;;;;19.36;46.47;96730.28;10540214;28;20044;-53
2023/04/26 05:40:59;;;;;;;2.10;1.40;;;;;;;19.41;46.36;96720.44;10540044;28;20044;-53
2023/04/26 05:46:19;;;;;;;2.38;1.40;;;;;;;19.43;46.47;96732.50;10539781;28;20483;-53
2023/04/26 05:51:38;;;;;;;1.65;1.48;;;;;;;19.46;46.32;96739.94;10554863;28;20040;-53
2023/04/26 05:56:58;;;;;;;1.50;1.25;;;;;;;19.49;45.81;96738.53;10539320;28;20044;-53
2023/04/26 06:02:19;;;;;;;3.00;1.40;;;;;;;19.52;45.72;96749.47;10525319;28;20061;-53
2023/04/26 06:07:38;;;;;;;2.05;1.30;;;;;;;19.54;45.69;96747.25;10554210;28;20052;-53
2023/04/26 06:12:58;;;;;;;3.33;1.40;;;;;;;19.60;45.67;96749.75;10538775;28;20048;-53
2023/04/26 06:18:21;;;;;;;2.00;1.50;;;;;;;19.63;45.65;96743.72;10538630;28;20059;-53
2023/04/26 06:23:40;;;;;;;2.58;1.58;;;;;;;19.67;45.46;96750.03;10538527;28;20408;-53
2023/04/26 06:29:00;;;;;;;2.40;1.30;;;;;;;19.70;46.14;96757.50;10539651;28;20105;-53
2023/04/26 06:34:19;;;;;;;2.92;1.77;;;;;;;19.75;46.33;96757.34;10538068;28;20423;-53
2023/04/26 06:39:40;;;;;;;1.30;1.08;;;;;;;19.79;46.34;96758.25;10523987;28;20067;-53
2023/04/26 06:45:00;;;;;;;1.35;1.10;;;;;;;19.83;46.37;96758.41;10537837;28;20044;-53
2023/04/26 06:50:19;;;;;;;3.63;1.38;;;;;;;19.84;46.33;96758.09;10537739;28;20093;-54
2023/04/26 06:55:39;;;;;;;2.60;1.30;;;;;;;19.87;46.30;96756.63;10552910;28;20506;-53
2023/04/26 07:00:58;;;;;;;2.97;1.27;;;;;;;19.91;46.33;96757.56;10552758;28;20097;-53
2023/04/26 07:06:18;;;;;;;1.88;1.15;;;;;;;19.94;46.25;96760.41;10539267;28;20052;-53
2023/04/26 07:11:37;;;;;;;1.98;1.20;;;;;;;19.97;46.36;96763.56;10553306;28;20047;-53
2023/04/26 07:16:57;;;;;;;1.83;1.33;;;;;;;20.00;46.28;96752.13;10561071;28;20048;-53
2023/04/26 07:22:16;;;;;;;1.98;1.10;;;;;;;20.03;46.19;96756.84;10560800;28;20098;-53
2023/04/26 07:27:36;;;;;;;1.70;1.08;;;;;;;20.05;46.17;96765.44;10551447;28;20073;-53
2023/04/26 07:32:55;;;;;;;1.60;1.08;;;;;;;20.08;46.26;96770.97;10560392;28;20480;-53
2023/04/26 07:38:18;;;;;;;2.22;1.20;;;;;;;20.10;46.32;96778.78;10560238;28;20051;-53
2023/04/26 07:43:38;;;;;;;1.60;1.15;;;;;;;20.13;46.21;96778.09;10559992;28;20054;-53
2023/04/26 07:48:57;;;;;;;2.17;1.23;;;;;;;20.18;46.22;96783.31;10560271;28;20040;-48
2023/04/26 07:54:17;;;;;;;3.55;1.15;;;;;;;20.21;46.24;96795.41;10559601;28;20480;-47
2023/04/26 07:59:37;;;;;;;2.50;1.25;;;;;;;20.23;46.27;96802.09;10559385;28;20059;-45
2023/04/26 08:04:56;;;;;;;2.97;1.02;;;;;;;20.25;46.30;96807.97;10559157;28;20063;-47
2023/04/26 08:10:16;;;;;;;6.65;1.25;;;;;;;20.27;46.39;96813.03;10545368;28;20052;-45
2023/04/26 08:15:35;;;;;;;2.45;1.10;;;;;;;20.29;46.49;96803.47;10558766;28;20036;-45
2023/04/26 08:20:55;;;;;;;3.65;1.23;;;;;;;20.30;46.63;96802.34;10558533;28;20059;-45
2023/04/26 08:26:14;;;;;;;1.88;1.08;;;;;;;20.32;46.82;96797.38;10543123;28;20085;-44
2023/04/26 08:31:34;;;;;;;2.28;1.10;;;;;;;20.32;46.87;96797.38;10557994;28;20051;-45
2023/04/26 08:36:54;;;;;;;2.17;1.17;;;;;;;20.32;46.87;96799.31;10557755;28;20048;-44
2023/04/26 08:42:15;;;;;;;4.50;1.10;;;;;;;20.35;46.80;96802.16;10557725;28;20044;-46
2023/04/26 08:47:47;;;;;;;2.85;0.98;;;;;;;20.35;46.89;96807.56;10557319;28;20048;-45
2023/04/26 08:53:07;;;;;;;2.33;1.00;;;;;;;20.38;46.74;96810.72;10557391;28;20434;-45
2023/04/26 08:58:27;;;;;;;1.55;1.13;;;;;;;20.35;46.89;96802.16;10556997;28;20048;-47
2023/04/26 09:03:47;;;;;;;3.03;1.10;;;;;;;20.39;47.00;96812.31;10556337;28;20052;-46
2023/04/26 09:09:07;;;;;;;2.25;1.15;;;;;;;20.38;47.10;96810.72;10556324;28;20047;-46
2023/04/26 09:14:27;;;;;;;2.97;0.98;;;;;;;20.38;47.06;96824.25;10556163;28;20040;-44
2023/04/26 09:19:47;;;;;;;2.60;1.00;;;;;;;20.39;47.04;96825.84;10555867;28;20052;-46
2023/04/26 09:25:07;;;;;;;2.40;1.15;;;;;;;20.38;47.04;96821.56;10553403;28;20048;-47
2023/04/26 09:30:27;;;;;;;2.03;1.10;;;;;;;20.39;47.06;96836.69;10555573;28;20044;-44
2023/04/26 09:35:47;;;;;;;3.13;1.10;;;;;;;20.38;47.08;96822.34;10526529;28;20079;-48
2023/04/26 09:41:06;;;;;;;2.35;1.10;;;;;;;20.38;47.06;96824.25;10554926;28;20047;-45
2023/04/26 09:46:26;;;;;;;1.65;1.20;;;;;;;20.39;47.12;96809.63;10554672;28;20050;-45
2023/04/26 09:51:59;;;;;;;1.63;0.80;;;;;;;20.39;47.15;96806.91;10554279;28;20089;-46
2023/04/26 09:57:21;;;;;;;1.80;1.00;;;;;;;20.41;47.07;96804.69;10554324;28;20048;-44
2023/04/26 10:02:40;;;;;;;3.30;1.00;;;;;;;20.43;47.29;96802.44;10554080;28;20044;-46
2023/04/26 10:08:02;;;;;;;3.80;1.40;;;;;;;20.42;43.73;96798.91;10554097;28;20047;-45
2023/04/26 10:13:21;;;;;;;3.75;1.30;;;;;;;20.12;35.89;96803.56;10553962;28;20047;-45
2023/04/26 10:18:42;;;;;;;5.63;1.23;;;;;;;20.18;41.28;96813.09;10525205;28;20071;-44
2023/04/26 10:24:02;;;;;;;1.45;1.20;;;;;;;20.24;41.96;96819.88;10553600;28;20047;-45
2023/04/26 10:29:22;;;;;;;3.67;1.23;;;;;;;20.28;42.21;96823.50;10539264;28;20442;-46
2023/04/26 10:34:42;;;;;;;3.72;1.17;;;;;;;19.88;32.34;96821.19;10551859;28;20066;-45
2023/04/26 10:40:30;;;;;;;3.63;1.27;;;;;;;19.88;34.60;96802.28;10553295;28;20040;-45
2023/04/26 10:45:50;;;;;;;2.42;1.08;;;;;;;20.04;39.03;96799.03;10538999;28;20048;-47
2023/04/26 10:51:14;;;;;;;3.58;1.15;;;;;;;20.12;39.64;96798.16;10552834;28;20044;-45
2023/04/26 10:56:37;;;;;;;2.95;1.20;;;;;;;20.18;40.06;96790.66;10552758;28;20101;-45
2023/04/26 11:01:59;;;;;;;1.70;1.00;;;;;;;20.20;40.64;96789.19;10552532;28;20048;-45
2023/04/26 11:07:36;;;;;;;40.35;28.27;;;;;;;20.24;42.72;96786.63;10518383;28;20052;-45
2023/04/26 11:13:02;;;;;;;35.67;23.85;;;;;;;20.25;43.77;96785.53;10510329;28;20041;-48
2023/04/26 11:18:22;;;;;;;24.23;14.10;;;;;;;20.25;43.70;96780.91;10508571;28;20522;-46
2023/04/26 11:23:42;;;;;;;22.50;15.15;;;;;;;20.25;44.42;96780.91;10509763;28;20044;-49
2023/04/26 11:29:03;;;;;;;28.73;14.85;;;;;;;20.26;44.72;96771.66;10481436;28;20063;-46
2023/04/26 11:34:33;;;;;;;19.02;12.68;;;;;;;20.26;44.91;96771.66;10509671;28;20049;-46
2023/04/26 11:39:52;;;;;;;16.67;10.50;;;;;;;20.27;45.16;96783.28;10509925;28;20051;-49
2023/04/26 11:45:15;;;;;;;14.63;9.00;;;;;;;20.27;45.11;96777.88;10509631;28;20040;-53
2023/04/26 11:50:36;;;;;;;13.88;9.02;;;;;;;20.25;45.60;96783.59;10509621;28;20040;-46
2023/04/26 11:55:55;;;;;;;13.52;9.05;;;;;;;20.25;45.82;96786.31;10509276;28;20060;-46
2023/04/26 12:01:27;;;;;;;12.13;7.80;;;;;;;20.26;45.94;96787.88;10516259;28;20067;-54
2023/04/26 12:06:48;;;;;;;11.85;7.40;;;;;;;20.25;45.95;96790.94;10503264;28;20044;-55
2023/04/26 12:12:08;;;;;;;8.32;4.18;;;;;;;20.21;39.78;96790.00;10501783;28;20041;-55
2023/04/26 12:17:27;;;;;;;7.55;5.28;;;;;;;20.20;44.76;96791.91;10516563;28;20051;-55
2023/04/26 12:23:00;;;;;;;12.82;5.53;;;;;;;20.20;44.59;96783.00;10516306;28;20049;-55
2023/04/26 12:37:29;;;;;;;10.18;3.85;;;;;;;20.04;44.33;96790.91;10533022;27;20494;-54
2023/04/26 12:42:49;;;;;;;5.90;2.97;;;;;;;20.04;44.61;96786.28;10529255;28;20040;-54
2023/04/26 12:48:10;;;;;;;6.45;3.00;;;;;;;20.07;44.40;96788.34;10504783;28;20044;-53
2023/04/26 12:53:30;;;;;;;8.63;2.42;;;;;;;20.10;44.59;96778.78;10504076;28;20037;-53
2023/04/26 12:58:49;;;;;;;2.95;1.75;;;;;;;20.07;41.04;96782.13;10504576;28;20098;-53
2023/04/26 13:04:09;;;;;;;3.75;2.15;;;;;;;20.07;43.51;96780.22;10504481;28;20052;-53
2023/04/26 13:09:29;;;;;;;4.78;2.70;;;;;;;20.11;43.75;96785.75;10504302;28;20381;-54
2023/04/26 13:14:48;;;;;;;4.88;2.08;;;;;;;20.11;43.80;96783.84;10503914;28;20044;-54
2023/04/26 13:20:08;;;;;;;3.55;2.30;;;;;;;20.12;44.01;96784.66;10503805;28;20048;-54
2023/04/26 13:25:27;;;;;;;7.55;2.25;;;;;;;20.12;44.10;96793.53;10531298;28;20060;-54
2023/04/26 13:30:47;;;;;;;4.18;2.05;;;;;;;20.11;43.95;96778.44;10503331;28;20036;-54
2023/04/26 13:36:06;;;;;;;3.67;1.90;;;;;;;20.10;44.15;96786.88;10523511;28;20056;-54
2023/04/26 13:41:28;;;;;;;3.58;1.63;;;;;;;20.11;43.90;96793.88;10544493;28;20040;-54
2023/04/26 13:46:47;;;;;;;4.72;1.58;;;;;;;20.10;44.21;96784.97;10528090;28;20404;-53
2023/04/26 13:52:07;;;;;;;6.07;1.75;;;;;;;20.09;44.32;96783.41;10516169;28;20051;-54
2023/04/26 13:57:26;;;;;;;3.85;1.58;;;;;;;20.09;44.35;96782.59;10516263;28;20041;-53
2023/04/26 14:02:45;;;;;;;3.00;1.17;;;;;;;20.09;44.40;96788.81;10515922;28;20040;-54
2023/04/26 14:08:05;;;;;;;2.80;1.25;;;;;;;20.08;44.54;96784.50;10515832;28;20036;-54
2023/04/26 14:13:24;;;;;;;2.90;1.45;;;;;;;20.08;44.77;96778.31;10512180;28;20094;-54
2023/04/26 14:18:44;;;;;;;3.38;1.02;;;;;;;20.09;44.75;96771.75;10511746;28;20036;-54
2023/04/26 14:24:04;;;;;;;1.27;0.82;;;;;;;20.08;44.69;96772.91;10511580;28;20052;-54
2023/04/26 14:29:23;;;;;;;3.28;1.15;;;;;;;20.08;45.01;96781.81;10514982;28;20052;-53
2023/04/26 14:34:43;;;;;;;4.85;1.30;;;;;;;20.07;45.16;96771.31;10508410;28;20064;-54
2023/04/26 14:40:03;;;;;;;2.25;1.20;;;;;;;20.08;45.06;96770.97;10514499;28;20538;-54
2023/04/26 14:45:23;;;;;;;2.67;1.20;;;;;;;20.06;45.54;96767.81;10513564;28;20052;-54
2023/04/26 14:50:42;;;;;;;5.18;1.42;;;;;;;20.06;45.85;96772.44;10514339;28;20043;-53
2023/04/26 14:56:02;;;;;;;2.85;1.23;;;;;;;20.07;45.94;96774.00;10512372;28;20512;-53
2023/04/26 15:01:21;;;;;;;4.50;1.00;;;;;;;20.07;45.97;96772.13;10513868;28;20049;-53
2023/04/26 15:06:41;;;;;;;2.03;1.27;;;;;;;20.08;46.23;96776.38;10513574;28;20056;-53
2023/04/26 15:12:03;;;;;;;2.72;1.15;;;;;;;20.06;46.53;96775.94;10513401;28;20048;-53
2023/04/26 15:17:23;;;;;;;5.50;1.70;;;;;;;20.04;46.62;96775.47;10513018;28;20041;-53
2023/04/26 15:22:42;;;;;;;2.72;0.90;;;;;;;20.04;46.66;96780.09;10512936;28;20045;-53
2023/04/26 15:28:02;;;;;;;4.68;1.20;;;;;;;20.03;46.38;96778.50;10515629;28;20048;-53
2023/04/26 15:33:22;;;;;;;3.83;0.90;;;;;;;20.03;46.51;96781.19;10501868;28;20064;-54
2023/04/26 15:38:44;;;;;;;4.55;1.38;;;;;;;20.02;46.42;96785.03;10513011;28;20045;-54
2023/04/26 15:44:03;;;;;;;0.77;0.60;;;;;;;20.00;46.49;96788.06;10512181;28;20079;-54
2023/04/26 15:49:23;;;;;;;3.53;1.20;;;;;;;20.01;46.63;96791.53;10512119;28;20044;-54
2023/04/26 15:54:43;;;;;;;8.77;1.45;;;;;;;19.99;46.57;96789.16;10513534;28;20048;-55
2023/04/26 16:00:07;;;;;;;6.10;1.13;;;;;;;19.99;46.05;96799.19;10513405;28;20040;-53
2023/04/26 16:05:27;;;;;;;2.85;1.15;;;;;;;19.97;46.28;96785.22;10514204;28;20256;-53
2023/04/26 16:10:47;;;;;;;5.47;1.10;;;;;;;19.97;45.98;96796.03;10511777;28;20466;-54
2023/04/26 16:16:10;;;;;;;3.97;1.10;;;;;;;19.94;45.88;96784.75;10510622;28;20040;-53
2023/04/26 16:21:29;;;;;;;8.63;1.20;;;;;;;19.92;45.78;96795.09;10511718;28;20125;-53
2023/04/26 16:26:49;;;;;;;2.80;0.88;;;;;;;19.91;45.63;96793.50;10511088;28;20047;-52
2023/04/26 16:32:09;;;;;;;2.08;1.08;;;;;;;19.90;45.55;96791.94;10511675;28;20036;-54
2023/04/26 16:37:29;;;;;;;2.65;1.08;;;;;;;19.90;45.55;96797.34;10510668;28;20404;-54
2023/04/26 16:42:48;;;;;;;4.75;1.10;;;;;;;19.89;45.98;96801.16;10510286;28;20056;-54
2023/04/26 16:48:08;;;;;;;4.30;1.20;;;;;;;19.88;46.20;96796.88;10510821;28;20045;-54
2023/04/26 16:53:27;;;;;;;4.18;1.08;;;;;;;19.87;46.07;96799.91;10512245;28;20049;-53
2023/04/26 16:58:48;;;;;;;3.03;1.40;;;;;;;19.88;45.74;96801.50;10512087;28;20048;-54
2023/04/26 17:04:07;;;;;;;3.10;1.10;;;;;;;19.87;46.15;96803.38;10512719;28;20040;-55
2023/04/26 17:09:26;;;;;;;3.85;1.20;;;;;;;19.88;46.28;96806.91;10511656;28;20045;-56
2023/04/26 17:14:46;;;;;;;2.10;0.73;;;;;;;19.86;46.48;96807.22;10510205;28;20051;-56
2023/04/26 17:20:06;;;;;;;4.43;1.60;;;;;;;19.86;46.76;96818.03;10511522;28;20491;-52
2023/04/26 17:25:26;;;;;;;5.07;1.20;;;;;;;19.85;46.95;96816.44;10517910;28;20045;-51
2023/04/26 17:30:46;;;;;;;5.35;1.20;;;;;;;19.85;47.16;96824.53;10517389;28;20182;-51
2023/04/26 17:36:06;;;;;;;2.47;0.85;;;;;;;19.85;47.24;96821.84;10506745;28;20048;-50
2023/04/26 17:41:26;;;;;;;0.90;0.80;;;;;;;19.85;47.37;96827.25;10517177;28;20045;-52
2023/04/26 17:46:47;;;;;;;2.70;1.20;;;;;;;19.82;47.41;96827.91;10516934;28;20049;-50
2023/04/26 17:52:06;;;;;;;1.67;1.10;;;;;;;19.82;47.56;96836.03;10516693;28;20041;-52
2023/04/26 17:57:26;;;;;;;0.98;0.90;;;;;;;19.81;47.78;96829.00;10516226;28;20048;-53
2023/04/26 18:02:46;;;;;;;2.20;1.20;;;;;;;19.82;47.75;96837.94;10515985;28;20044;-52
2023/04/26 18:08:05;;;;;;;2.83;1.02;;;;;;;19.81;47.98;96850.66;10515728;28;20052;-53
2023/04/26 18:13:25;;;;;;;2.22;1.08;;;;;;;19.79;47.96;96850.19;10515730;28;20047;-54
2023/04/26 18:18:44;;;;;;;3.10;1.00;;;;;;;19.77;48.00;96852.41;10515644;28;20074;-52
2023/04/26 18:24:05;;;;;;;2.40;0.90;;;;;;;19.76;48.16;96853.53;10514384;28;20048;-52
2023/04/26 18:29:24;;;;;;;3.15;1.05;;;;;;;19.75;48.18;96855.44;10515168;28;20036;-53
2023/04/26 18:34:43;;;;;;;1.58;1.02;;;;;;;19.75;48.30;96851.94;10508302;28;20067;-55
2023/04/26 18:40:04;;;;;;;2.83;0.95;;;;;;;19.74;48.37;96863.88;10514746;28;20044;-49
2023/04/26 18:45:24;;;;;;;5.35;0.95;;;;;;;19.74;48.90;96867.38;10514496;28;20044;-53
2023/04/26 18:50:51;;;;;;;2.45;1.10;;;;;;;19.74;49.27;96874.69;10515867;28;20459;-53
2023/04/26 18:56:11;;;;;;;2.17;1.00;;;;;;;19.71;49.24;96886.94;10515760;28;20397;-52
2023/04/26 19:01:31;;;;;;;4.25;1.10;;;;;;;19.72;49.30;96896.63;10514774;28;20060;-50
2023/04/26 19:06:51;;;;;;;3.95;1.23;;;;;;;19.72;49.78;96899.34;10515828;28;20045;-49
2023/04/26 19:12:10;;;;;;;1.45;1.00;;;;;;;19.72;50.35;96901.25;10513534;28;20044;-51
2023/04/26 19:17:32;;;;;;;2.60;1.30;;;;;;;19.71;50.49;96903.16;10513009;28;20040;-54
2023/04/26 19:22:51;;;;;;;5.35;1.20;;;;;;;19.71;50.88;96908.56;10513088;28;20416;-53
2023/04/26 19:28:11;;;;;;;1.38;0.98;;;;;;;19.70;51.01;96912.34;10512682;28;20040;-54
2023/04/26 19:33:31;;;;;;;3.83;1.20;;;;;;;19.70;51.28;96915.06;10509239;28;20546;-55
2023/04/26 19:38:50;;;;;;;5.55;1.52;;;;;;;19.69;51.38;96916.16;10512175;28;20055;-55
2023/04/26 19:44:11;;;;;;;8.93;1.20;;;;;;;19.70;51.50;96922.38;10511591;28;20474;-56
2023/04/26 19:49:30;;;;;;;2.35;1.00;;;;;;;19.69;51.80;96926.19;10511821;28;20045;-55
2023/04/26 19:54:52;;;;;;;3.63;1.00;;;;;;;19.67;51.76;96926.50;10511949;28;20488;-54
2023/04/26 20:00:14;;;;;;;3.53;1.20;;;;;;;19.67;51.85;96934.59;10510602;28;20476;-49
2023/04/26 20:05:33;;;;;;;2.50;1.10;;;;;;;19.65;51.93;96939.53;10511250;28;20048;-49
2023/04/26 20:10:53;;;;;;;2.92;1.10;;;;;;;19.65;51.41;96942.25;10497771;28;20135;-46
2023/04/26 20:16:12;;;;;;;2.08;1.15;;;;;;;19.64;51.67;96951.47;10497883;28;20049;-46
2023/04/26 20:21:32;;;;;;;3.47;1.17;;;;;;;19.64;51.97;96947.97;10510046;28;20051;-47
2023/04/26 20:26:51;;;;;;;2.70;1.08;;;;;;;19.64;52.11;96950.66;10510816;28;20048;-48
2023/04/26 20:32:11;;;;;;;3.80;1.30;;;;;;;19.64;52.03;96947.97;10510830;28;20046;-48
2023/04/26 20:37:30;;;;;;;2.10;1.10;;;;;;;19.62;51.93;96947.50;10510593;28;20044;-49
2023/04/26 20:42:50;;;;;;;2.40;1.10;;;;;;;19.63;52.25;96954.50;10510558;28;20044;-45
2023/04/26 20:48:10;;;;;;;5.32;1.20;;;;;;;19.62;52.14;96952.91;10510577;28;20099;-47
2023/04/26 20:53:29;;;;;;;2.17;1.30;;;;;;;19.62;52.14;96958.31;10510409;28;20404;-45
2023/04/26 20:58:49;;;;;;;2.90;1.30;;;;;;;19.60;51.92;96955.13;10518009;28;20055;-47
2023/04/26 21:04:09;;;;;;;2.78;1.10;;;;;;;19.59;51.90;96954.34;10518622;28;20052;-46
2023/04/26 21:09:28;;;;;;;2.55;1.25;;;;;;;19.59;51.88;96958.97;10518465;28;20037;-45
2023/04/26 21:14:48;;;;;;;3.83;1.42;;;;;;;19.57;51.61;96959.28;10518260;28;20095;-47
2023/04/26 21:20:08;;;;;;;3.90;1.35;;;;;;;19.54;51.75;96960.72;10518165;28;20090;-45
2023/04/26 21:25:27;;;;;;;3.47;1.33;;;;;;;19.54;51.58;96952.59;10517931;28;20045;-46
2023/04/26 21:30:47;;;;;;;2.30;1.27;;;;;;;19.52;51.53;96960.25;10517733;28;20041;-46
2023/04/26 21:36:07;;;;;;;3.58;1.15;;;;;;;19.51;51.58;96964.03;10506981;28;20052;-46
2023/04/26 21:41:26;;;;;;;3.50;1.15;;;;;;;19.50;50.99;96967.88;10517217;28;20048;-46
2023/04/26 21:46:46;;;;;;;2.88;1.00;;;;;;;19.50;50.72;96967.88;10517014;28;20045;-48
2023/04/26 21:52:05;;;;;;;1.75;1.17;;;;;;;19.48;50.75;96962.00;10516813;28;20047;-47
2023/04/26 21:57:24;;;;;;;1.60;1.10;;;;;;;19.47;50.42;96965.00;10516540;28;20545;-47
2023/04/26 22:02:44;;;;;;;5.43;1.30;;;;;;;19.46;50.58;96968.81;10516475;28;20118;-46
2023/04/26 22:08:04;;;;;;;2.85;1.20;;;;;;;19.44;50.31;96971.81;10515736;28;20052;-46
2023/04/26 22:13:23;;;;;;;2.53;1.25;;;;;;;19.44;50.16;96977.22;10514899;28;20052;-48
2023/04/26 22:18:43;;;;;;;1.65;0.98;;;;;;;19.43;50.23;96981.06;10515772;28;20052;-48
2023/04/26 22:24:02;;;;;;;2.42;1.10;;;;;;;19.41;50.20;96980.59;10515585;28;20492;-47
2023/04/26 22:29:22;;;;;;;1.85;1.05;;;;;;;19.40;50.10;96989.78;10515341;28;20074;-47
2023/04/26 22:34:42;;;;;;;1.90;1.10;;;;;;;19.40;50.10;96994.41;10508702;28;20052;-48
2023/04/26 22:40:02;;;;;;;1.85;1.10;;;;;;;19.39;49.89;96998.25;10514959;28;20044;-47
2023/04/26 22:45:22;;;;;;;1.75;1.10;;;;;;;19.37;50.08;96995.84;10501032;28;20089;-46
2023/04/26 22:50:42;;;;;;;3.10;1.00;;;;;;;19.38;49.93;96991.22;10514534;28;20047;-48
2023/04/26 22:56:01;;;;;;;1.58;1.08;;;;;;;19.35;49.80;96995.38;10514259;28;20043;-48
2023/04/26 23:01:21;;;;;;;2.78;1.15;;;;;;;19.33;49.65;97006.50;10514160;28;20058;-47
2023/04/26 23:06:40;;;;;;;1.40;1.13;;;;;;;19.33;49.69;97003.00;10513864;28;20048;-49
2023/04/26 23:12:03;;;;;;;2.03;1.20;;;;;;;19.32;49.71;97004.88;10513627;28;20044;-46
2023/04/26 23:17:24;;;;;;;2.47;1.20;;;;;;;19.31;49.68;97008.72;10512586;28;20056;-48
2023/04/26 23:22:44;;;;;;;1.83;0.93;;;;;;;19.30;49.53;97003.63;10513250;28;20138;-47
2023/04/26 23:28:03;;;;;;;1.65;1.30;;;;;;;19.30;49.49;97011.72;10513066;28;20447;-49
2023/04/26 23:33:24;;;;;;;1.58;1.10;;;;;;;19.28;49.48;97009.34;10510083;28;20048;-46
2023/04/26 23:38:43;;;;;;;1.45;1.00;;;;;;;19.27;49.40;97021.25;10512688;28;20041;-49
2023/04/26 23:44:02;;;;;;;1.15;0.90;;;;;;;19.26;49.43;97010.78;10512549;28;20044;-48
2023/04/26 23:49:23;;;;;;;3.20;1.15;;;;;;;19.25;49.42;97017.28;10512355;28;20039;-47
2023/04/26 23:54:42;;;;;;;1.90;1.00;;;;;;;19.25;49.41;97015.38;10512051;28;20044;-48
